sensor_id;sensor_type;location;lat;lon;timestamp;pressure;altitude;pressure_sealevel;temperature;humidity
35553;BME280;21656;46.054;13.614;2022-11-15T07:33:30;100808.81;;;9.97;100.00
35553;BME280;21656;46.054;13.614;2022-11-15T07:36:06;100809.47;;;10.01;100.00
35553;BME280;21656;46.054;13.614;2022-11-15T07:38:33;100812.91;;;10.15;100.00
35553;BME280;21656;46.054;13.614;2022-11-15T07:41:01;100807.28;;;10.18;100.00
35553;BME280;21656;46.054;13.614;2022-11-15T07:43:26;100814.78;;;10.26;100.00
35553;BME280;21656;46.054;13.614;2022-11-15T07:45:56;100816.63;;;10.38;100.00
35553;BME280;21656;46.054;13.614;2022-11-15T07:48:22;100814.31;;;10.45;100.00
35553;BME280;21656;46.054;13.614;2022-11-15T07:50:47;100812.56;;;10.57;100.00
35553;BME280;21656;46.054;13.614;2022-11-15T07:53:13;100817.53;;;10.50;100.00
35553;BME280;21656;46.054;13.614;2022-11-15T07:55:40;100823.50;;;10.67;100.00
35553;BME280;21656;46.054;13.614;2022-11-15T07:58:10;100822.75;;;10.65;100.00
35553;BME280;21656;46.054;13.614;2022-11-15T08:00:36;100822.16;;;10.61;100.00
35553;BME280;21656;46.054;13.614;2022-11-15T08:03:10;100815.53;;;10.65;100.00
35553;BME280;21656;46.054;13.614;2022-11-15T08:05:37;100811.75;;;10.68;100.00
35553;BME280;21656;46.054;13.614;2022-11-15T08:08:04;100806.25;;;10.69;100.00
35553;BME280;21656;46.054;13.614;2022-11-15T08:10:30;100819.16;;;10.77;100.00
35553;BME280;21656;46.054;13.614;2022-11-15T08:13:02;100809.34;;;10.76;100.00
35553;BME280;21656;46.054;13.614;2022-11-15T08:15:29;100814.97;;;10.73;100.00
35553;BME280;21656;46.054;13.614;2022-11-15T08:18:00;100809.72;;;10.71;100.00
35553;BME280;21656;46.054;13.614;2022-11-15T08:20:27;100799.72;;;10.84;100.00
35553;BME280;21656;46.054;13.614;2022-11-15T08:22:55;100804.00;;;10.87;100.00
35553;BME280;21656;46.054;13.614;2022-11-15T08:25:21;100799.75;;;10.96;100.00
35553;BME280;21656;46.054;13.614;2022-11-15T08:27:47;100799.06;;;11.05;100.00
35553;BME280;21656;46.054;13.614;2022-11-15T08:30:13;100801.78;;;11.16;100.00
35553;BME280;21656;46.054;13.614;2022-11-15T08:32:41;100794.31;;;11.20;100.00
35553;BME280;21656;46.054;13.614;2022-11-15T08:35:06;100791.88;;;11.28;100.00
35553;BME280;21656;46.054;13.614;2022-11-15T08:37:32;100796.44;;;11.27;100.00
35553;BME280;21656;46.054;13.614;2022-11-15T08:39:57;100799.97;;;11.28;100.00
35553;BME280;21656;46.054;13.614;2022-11-15T08:42:23;100795.69;;;11.25;100.00
35553;BME280;21656;46.054;13.614;2022-11-15T08:44:48;100792.63;;;11.30;100.00
35553;BME280;21656;46.054;13.614;2022-11-15T08:47:13;100794.47;;;11.41;100.00
35553;BME280;21656;46.054;13.614;2022-11-15T08:49:39;100784.94;;;11.48;100.00
35553;BME280;21656;46.054;13.614;2022-11-15T08:52:04;100786.94;;;11.57;100.00
35553;BME280;21656;46.054;13.614;2022-11-15T08:54:30;100794.50;;;11.63;100.00
35553;BME280;21656;46.054;13.614;2022-11-15T08:56:55;100796.84;;;11.68;100.00
35553;BME280;21656;46.054;13.614;2022-11-15T08:59:22;100803.47;;;11.64;100.00
35553;BME280;21656;46.054;13.614;2022-11-15T09:01:48;100796.97;;;11.66;100.00
35553;BME280;21656;46.054;13.614;2022-11-15T09:04:14;100805.69;;;11.70;100.00
35553;BME280;21656;46.054;13.614;2022-11-15T09:06:40;100794.25;;;11.66;100.00
35553;BME280;21656;46.054;13.614;2022-11-15T09:09:07;100794.91;;;11.70;100.00
35553;BME280;21656;46.054;13.614;2022-11-15T09:11:32;100798.31;;;11.72;100.00
35553;BME280;21656;46.054;13.614;2022-11-15T09:13:58;100796.00;;;11.79;100.00
35553;BME280;21656;46.054;13.614;2022-11-15T09:16:24;100795.00;;;11.80;100.00
35553;BME280;21656;46.054;13.614;2022-11-15T09:18:49;100799.94;;;11.86;100.00
35553;BME280;21656;46.054;13.614;2022-11-15T09:21:15;100798.97;;;11.98;100.00
35553;BME280;21656;46.054;13.614;2022-11-15T09:23:40;100789.16;;;12.08;100.00
35553;BME280;21656;46.054;13.614;2022-11-15T09:26:06;100783.25;;;12.26;100.00
35553;BME280;21656;46.054;13.614;2022-11-15T09:28:32;100783.84;;;12.41;100.00
35553;BME280;21656;46.054;13.614;2022-11-15T09:31:04;100785.38;;;12.54;100.00
35553;BME280;21656;46.054;13.614;2022-11-15T09:33:30;100787.31;;;12.64;100.00
35553;BME280;21656;46.054;13.614;2022-11-15T09:36:06;100769.00;;;12.67;100.00
35553;BME280;21656;46.054;13.614;2022-11-15T09:38:32;100776.03;;;12.58;100.00
35553;BME280;21656;46.054;13.614;2022-11-15T09:46:26;100776.56;;;12.41;100.00
35553;BME280;21656;46.054;13.614;2022-11-15T09:48:54;100767.00;;;12.48;100.00
35553;BME280;21656;46.054;13.614;2022-11-15T10:03:01;100743.34;;;13.15;100.00
35553;BME280;21656;46.054;13.614;2022-11-15T10:05:24;100752.84;;;13.30;100.00
35553;BME280;21656;46.054;13.614;2022-11-15T10:12:50;100728.97;;;13.35;100.00
35553;BME280;21656;46.054;13.614;2022-11-15T10:15:18;100732.03;;;13.52;100.00
35553;BME280;21656;46.054;13.614;2022-11-15T10:20:44;100713.13;;;13.61;100.00
35553;BME280;21656;46.054;13.614;2022-11-15T10:23:14;100709.47;;;13.72;100.00
35553;BME280;21656;46.054;13.614;2022-11-15T10:25:41;100703.50;;;13.78;100.00
35553;BME280;21656;46.054;13.614;2022-11-15T10:28:14;100692.53;;;13.70;100.00
35553;BME280;21656;46.054;13.614;2022-11-15T10:30:43;100691.84;;;13.78;100.00
35553;BME280;21656;46.054;13.614;2022-11-15T10:39:00;100668.81;;;14.13;100.00
35553;BME280;21656;46.054;13.614;2022-11-15T10:41:31;100664.44;;;14.70;100.00
35553;BME280;21656;46.054;13.614;2022-11-15T10:46:35;100659.00;;;15.64;100.00
35553;BME280;21656;46.054;13.614;2022-11-15T10:51:46;100648.75;;;16.13;100.00
35553;BME280;21656;46.054;13.614;2022-11-15T10:54:12;100648.03;;;16.11;100.00
35553;BME280;21656;46.054;13.614;2022-11-15T10:56:40;100642.28;;;15.96;100.00
35553;BME280;21656;46.054;13.614;2022-11-15T10:59:16;100638.09;;;16.02;100.00
35553;BME280;21656;46.054;13.614;2022-11-15T11:01:48;100632.94;;;15.81;100.00
35553;BME280;21656;46.054;13.614;2022-11-15T11:04:14;100621.00;;;15.92;100.00
35553;BME280;21656;46.054;13.614;2022-11-15T11:06:56;100617.00;;;16.14;100.00
35553;BME280;21656;46.054;13.614;2022-11-15T11:11:54;100607.34;;;16.37;98.80
35553;BME280;21656;46.054;13.614;2022-11-15T11:14:23;100613.47;;;16.57;92.27
35553;BME280;21656;46.054;13.614;2022-11-15T11:17:04;100608.50;;;16.53;86.14
35553;BME280;21656;46.054;13.614;2022-11-15T11:30:56;100584.25;;;17.46;87.93
35553;BME280;21656;46.054;13.614;2022-11-15T11:36:15;100586.97;;;16.59;82.33
35553;BME280;21656;46.054;13.614;2022-11-15T11:43:54;100583.81;;;15.74;90.84
35553;BME280;21656;46.054;13.614;2022-11-15T11:46:34;100589.28;;;15.65;93.69
35553;BME280;21656;46.054;13.614;2022-11-15T11:49:13;100579.53;;;15.44;93.42
35553;BME280;21656;46.054;13.614;2022-11-15T11:51:49;100580.75;;;15.04;93.07
35553;BME280;21656;46.054;13.614;2022-11-15T11:57:03;100572.66;;;14.85;96.69
35553;BME280;21656;46.054;13.614;2022-11-15T11:59:44;100566.78;;;14.99;99.15
35553;BME280;21656;46.054;13.614;2022-11-15T12:02:34;100559.66;;;15.26;94.90
35553;BME280;21656;46.054;13.614;2022-11-15T12:05:19;100554.16;;;15.63;93.87
35553;BME280;21656;46.054;13.614;2022-11-15T12:07:49;100550.00;;;16.04;89.56
35553;BME280;21656;46.054;13.614;2022-11-15T12:10:23;100550.25;;;16.11;90.21
35553;BME280;21656;46.054;13.614;2022-11-15T12:13:10;100544.47;;;15.60;91.21
35553;BME280;21656;46.054;13.614;2022-11-15T12:18:14;100548.13;;;15.42;95.94
35553;BME280;21656;46.054;13.614;2022-11-15T12:20:41;100542.31;;;15.36;96.21
35553;BME280;21656;46.054;13.614;2022-11-15T12:23:28;100537.44;;;15.12;96.40
35553;BME280;21656;46.054;13.614;2022-11-15T12:26:06;100535.63;;;15.03;98.69
35553;BME280;21656;46.054;13.614;2022-11-15T12:28:53;100535.22;;;14.98;96.82
35553;BME280;21656;46.054;13.614;2022-11-15T12:33:58;100532.91;;;15.03;98.09
35553;BME280;21656;46.054;13.614;2022-11-15T12:39:09;100528.34;;;15.04;95.69
35553;BME280;21656;46.054;13.614;2022-11-15T12:41:37;100523.94;;;15.03;97.95
35553;BME280;21656;46.054;13.614;2022-11-15T12:44:03;100519.94;;;15.07;97.44
35553;BME280;21656;46.054;13.614;2022-11-15T13:02:44;100494.91;;;16.90;88.72
35553;BME280;21656;46.054;13.614;2022-11-15T13:12:53;100492.69;;;16.34;82.49
35553;BME280;21656;46.054;13.614;2022-11-15T13:15:51;100492.03;;;16.14;86.42
35553;BME280;21656;46.054;13.614;2022-11-15T13:20:52;100488.72;;;15.84;94.05
35553;BME280;21656;46.054;13.614;2022-11-15T13:23:18;100488.88;;;15.19;97.28
35553;BME280;21656;46.054;13.614;2022-11-15T13:28:33;100475.59;;;15.16;100.00
35553;BME280;21656;46.054;13.614;2022-11-15T13:31:25;100475.63;;;14.88;100.00
35553;BME280;21656;46.054;13.614;2022-11-15T13:33:53;100491.09;;;14.68;100.00
35553;BME280;21656;46.054;13.614;2022-11-15T13:36:25;100489.00;;;14.62;100.00
35553;BME280;21656;46.054;13.614;2022-11-15T13:39:05;100491.72;;;14.62;100.00
35553;BME280;21656;46.054;13.614;2022-11-15T13:41:36;100487.13;;;14.63;100.00
35553;BME280;21656;46.054;13.614;2022-11-15T13:44:22;100486.91;;;14.56;100.00
35553;BME280;21656;46.054;13.614;2022-11-15T13:46:48;100484.88;;;14.58;100.00
35553;BME280;21656;46.054;13.614;2022-11-15T13:49:13;100489.31;;;14.59;100.00
35553;BME280;21656;46.054;13.614;2022-11-15T13:51:46;100486.50;;;14.31;100.00
35553;BME280;21656;46.054;13.614;2022-11-15T13:56:41;100475.56;;;14.23;100.00
35553;BME280;21656;46.054;13.614;2022-11-15T13:59:27;100481.13;;;14.12;100.00
35553;BME280;21656;46.054;13.614;2022-11-15T14:01:58;100480.16;;;14.03;100.00
35553;BME280;21656;46.054;13.614;2022-11-15T14:04:26;100472.44;;;13.99;100.00
35553;BME280;21656;46.054;13.614;2022-11-15T14:06:58;100474.19;;;13.90;100.00
35553;BME280;21656;46.054;13.614;2022-11-15T14:09:31;100475.03;;;13.91;100.00
35553;BME280;21656;46.054;13.614;2022-11-15T14:11:58;100469.31;;;13.94;100.00
35553;BME280;21656;46.054;13.614;2022-11-15T14:14:25;100473.59;;;13.96;100.00
35553;BME280;21656;46.054;13.614;2022-11-15T14:16:59;100464.47;;;13.97;100.00
35553;BME280;21656;46.054;13.614;2022-11-15T14:22:10;100454.22;;;14.01;100.00
35553;BME280;21656;46.054;13.614;2022-11-15T14:24:37;100461.91;;;13.96;100.00
35553;BME280;21656;46.054;13.614;2022-11-15T14:27:24;100457.34;;;13.96;100.00
35553;BME280;21656;46.054;13.614;2022-11-15T14:29:50;100460.59;;;14.00;100.00
35553;BME280;21656;46.054;13.614;2022-11-15T14:34:57;100457.34;;;13.86;100.00
35553;BME280;21656;46.054;13.614;2022-11-15T14:37:26;100450.25;;;13.95;100.00
35553;BME280;21656;46.054;13.614;2022-11-15T14:39:52;100456.06;;;13.91;100.00
35553;BME280;21656;46.054;13.614;2022-11-15T14:42:19;100440.97;;;13.88;100.00
35553;BME280;21656;46.054;13.614;2022-11-15T14:44:45;100451.66;;;13.90;100.00
35553;BME280;21656;46.054;13.614;2022-11-15T14:47:11;100444.13;;;13.83;100.00
35553;BME280;21656;46.054;13.614;2022-11-15T14:49:38;100439.56;;;13.74;100.00
35553;BME280;21656;46.054;13.614;2022-11-15T14:52:21;100438.41;;;13.67;100.00
35553;BME280;21656;46.054;13.614;2022-11-15T14:54:48;100445.25;;;13.61;100.00
35553;BME280;21656;46.054;13.614;2022-11-15T14:57:13;100437.00;;;13.63;100.00
35553;BME280;21656;46.054;13.614;2022-11-15T14:59:39;100440.44;;;13.65;100.00
35553;BME280;21656;46.054;13.614;2022-11-15T15:02:19;100439.41;;;13.56;100.00
35553;BME280;21656;46.054;13.614;2022-11-15T15:04:46;100436.00;;;13.54;100.00
35553;BME280;21656;46.054;13.614;2022-11-15T15:07:12;100433.88;;;13.48;100.00
35553;BME280;21656;46.054;13.614;2022-11-15T15:09:37;100437.59;;;13.47;100.00
35553;BME280;21656;46.054;13.614;2022-11-15T15:12:04;100436.28;;;13.41;100.00
35553;BME280;21656;46.054;13.614;2022-11-15T15:14:30;100441.56;;;13.43;100.00
35553;BME280;21656;46.054;13.614;2022-11-15T15:16:55;100429.88;;;13.33;100.00
35553;BME280;21656;46.054;13.614;2022-11-15T15:19:21;100424.34;;;13.34;100.00
35553;BME280;21656;46.054;13.614;2022-11-15T15:21:47;100428.16;;;13.32;100.00
35553;BME280;21656;46.054;13.614;2022-11-15T15:24:14;100430.25;;;13.18;100.00
35553;BME280;21656;46.054;13.614;2022-11-15T15:26:41;100414.63;;;13.22;100.00
35553;BME280;21656;46.054;13.614;2022-11-15T15:29:09;100426.41;;;13.21;100.00
35553;BME280;21656;46.054;13.614;2022-11-15T15:31:35;100416.91;;;13.17;100.00
35553;BME280;21656;46.054;13.614;2022-11-15T15:34:01;100415.88;;;13.18;100.00
35553;BME280;21656;46.054;13.614;2022-11-15T15:36:27;100416.47;;;13.12;100.00
35553;BME280;21656;46.054;13.614;2022-11-15T15:38:53;100414.16;;;13.07;100.00
35553;BME280;21656;46.054;13.614;2022-11-15T15:41:18;100414.16;;;13.07;100.00
35553;BME280;21656;46.054;13.614;2022-11-15T15:43:44;100407.59;;;13.00;100.00
35553;BME280;21656;46.054;13.614;2022-11-15T15:46:12;100409.75;;;13.06;100.00
35553;BME280;21656;46.054;13.614;2022-11-15T15:48:38;100415.59;;;13.01;100.00
35553;BME280;21656;46.054;13.614;2022-11-15T15:51:05;100412.00;;;13.01;100.00
35553;BME280;21656;46.054;13.614;2022-11-15T15:53:31;100414.47;;;13.04;100.00
35553;BME280;21656;46.054;13.614;2022-11-15T15:55:57;100415.41;;;12.93;100.00
35553;BME280;21656;46.054;13.614;2022-11-15T15:58:23;100414.28;;;12.96;100.00
35553;BME280;21656;46.054;13.614;2022-11-15T16:00:49;100402.06;;;12.92;100.00
35553;BME280;21656;46.054;13.614;2022-11-15T16:03:15;100409.44;;;12.90;100.00
35553;BME280;21656;46.054;13.614;2022-11-15T16:05:41;100410.00;;;12.93;100.00
35553;BME280;21656;46.054;13.614;2022-11-15T16:08:20;100402.44;;;12.77;100.00
35553;BME280;21656;46.054;13.614;2022-11-15T16:10:46;100402.03;;;12.82;100.00
35553;BME280;21656;46.054;13.614;2022-11-15T16:13:12;100402.88;;;12.83;100.00
35553;BME280;21656;46.054;13.614;2022-11-15T16:15:44;100402.59;;;12.86;100.00
35553;BME280;21656;46.054;13.614;2022-11-15T16:18:18;100405.84;;;12.79;100.00
35553;BME280;21656;46.054;13.614;2022-11-15T16:20:51;100407.84;;;12.77;100.00
35553;BME280;21656;46.054;13.614;2022-11-15T16:23:22;100392.47;;;12.78;100.00
35553;BME280;21656;46.054;13.614;2022-11-15T16:25:55;100397.59;;;12.81;100.00
35553;BME280;21656;46.054;13.614;2022-11-15T16:30:49;100392.78;;;12.85;100.00
35553;BME280;21656;46.054;13.614;2022-11-15T16:33:15;100392.34;;;12.79;100.00
35553;BME280;21656;46.054;13.614;2022-11-15T16:35:42;100387.63;;;12.72;100.00
35553;BME280;21656;46.054;13.614;2022-11-15T16:38:14;100392.00;;;12.63;100.00
35553;BME280;21656;46.054;13.614;2022-11-15T16:40:39;100383.47;;;12.58;100.00
35553;BME280;21656;46.054;13.614;2022-11-15T16:43:05;100383.63;;;12.56;100.00
35553;BME280;21656;46.054;13.614;2022-11-15T16:45:33;100380.75;;;12.48;100.00
35553;BME280;21656;46.054;13.614;2022-11-15T16:48:00;100392.53;;;12.47;100.00
35553;BME280;21656;46.054;13.614;2022-11-15T16:50:28;100383.69;;;12.45;100.00
35553;BME280;21656;46.054;13.614;2022-11-15T16:52:56;100381.16;;;12.44;100.00
35553;BME280;21656;46.054;13.614;2022-11-15T16:55:24;100393.66;;;12.45;100.00
35553;BME280;21656;46.054;13.614;2022-11-15T16:57:50;100389.97;;;12.46;100.00
35553;BME280;21656;46.054;13.614;2022-11-15T17:00:17;100381.00;;;12.45;100.00
35553;BME280;21656;46.054;13.614;2022-11-15T17:02:45;100386.28;;;12.47;100.00
35553;BME280;21656;46.054;13.614;2022-11-15T17:05:12;100378.94;;;12.28;100.00
35553;BME280;21656;46.054;13.614;2022-11-15T17:07:38;100386.47;;;12.24;100.00
35553;BME280;21656;46.054;13.614;2022-11-15T17:10:04;100395.78;;;12.10;100.00
35553;BME280;21656;46.054;13.614;2022-11-15T17:12:33;100391.97;;;12.13;100.00
35553;BME280;21656;46.054;13.614;2022-11-15T17:14:59;100386.56;;;12.13;100.00
35553;BME280;21656;46.054;13.614;2022-11-15T17:17:24;100387.72;;;12.20;100.00
35553;BME280;21656;46.054;13.614;2022-11-15T17:19:51;100384.72;;;12.13;100.00
35553;BME280;21656;46.054;13.614;2022-11-15T17:22:18;100388.00;;;12.17;100.00
35553;BME280;21656;46.054;13.614;2022-11-15T17:24:43;100387.69;;;12.10;100.00
35553;BME280;21656;46.054;13.614;2022-11-15T17:27:09;100390.84;;;12.16;100.00
35553;BME280;21656;46.054;13.614;2022-11-15T17:29:34;100387.41;;;12.13;100.00
35553;BME280;21656;46.054;13.614;2022-11-15T17:31:59;100384.72;;;12.13;100.00
35553;BME280;21656;46.054;13.614;2022-11-15T17:34:25;100383.72;;;12.14;100.00
35553;BME280;21656;46.054;13.614;2022-11-15T17:36:50;100373.78;;;12.15;100.00
35553;BME280;21656;46.054;13.614;2022-11-15T17:39:16;100386.41;;;12.14;100.00
35553;BME280;21656;46.054;13.614;2022-11-15T17:41:42;100385.50;;;12.04;100.00
35553;BME280;21656;46.054;13.614;2022-11-15T17:44:08;100382.69;;;12.06;100.00
35553;BME280;21656;46.054;13.614;2022-11-15T17:46:33;100378.53;;;12.02;100.00
35553;BME280;21656;46.054;13.614;2022-11-15T17:49:00;100380.50;;;12.00;100.00
35553;BME280;21656;46.054;13.614;2022-11-15T17:51:26;100376.50;;;11.94;100.00
35553;BME280;21656;46.054;13.614;2022-11-15T17:53:52;100372.84;;;11.95;100.00
35553;BME280;21656;46.054;13.614;2022-11-15T17:56:22;100375.84;;;12.02;100.00
35553;BME280;21656;46.054;13.614;2022-11-15T17:58:56;100376.38;;;11.96;100.00
35553;BME280;21656;46.054;13.614;2022-11-15T18:01:28;100369.03;;;11.98;100.00
35553;BME280;21656;46.054;13.614;2022-11-15T18:03:55;100374.16;;;12.01;100.00
35553;BME280;21656;46.054;13.614;2022-11-15T18:06:22;100373.13;;;12.02;100.00
35553;BME280;21656;46.054;13.614;2022-11-15T18:08:50;100370.31;;;12.03;100.00
35553;BME280;21656;46.054;13.614;2022-11-15T18:11:21;100365.19;;;12.00;100.00
35553;BME280;21656;46.054;13.614;2022-11-15T18:13:52;100368.75;;;12.01;100.00
35553;BME280;21656;46.054;13.614;2022-11-15T18:16:23;100358.88;;;11.90;100.00
35553;BME280;21656;46.054;13.614;2022-11-15T18:18:52;100362.56;;;11.89;100.00
35553;BME280;21656;46.054;13.614;2022-11-15T18:21:24;100360.63;;;11.80;100.00
35553;BME280;21656;46.054;13.614;2022-11-15T18:23:56;100359.50;;;11.82;100.00
35553;BME280;21656;46.054;13.614;2022-11-15T18:26:25;100350.53;;;11.93;100.00
35553;BME280;21656;46.054;13.614;2022-11-15T18:29:02;100362.28;;;11.92;100.00
35553;BME280;21656;46.054;13.614;2022-11-15T18:31:30;100361.03;;;11.96;100.00
35553;BME280;21656;46.054;13.614;2022-11-15T18:33:58;100357.16;;;11.89;100.00
35553;BME280;21656;46.054;13.614;2022-11-15T18:36:26;100355.06;;;11.92;100.00
35553;BME280;21656;46.054;13.614;2022-11-15T18:38:56;100358.47;;;11.95;100.00
35553;BME280;21656;46.054;13.614;2022-11-15T18:41:23;100357.91;;;11.91;100.00
35553;BME280;21656;46.054;13.614;2022-11-15T18:43:53;100352.38;;;11.92;100.00
35553;BME280;21656;46.054;13.614;2022-11-15T18:46:21;100354.66;;;11.97;100.00
35553;BME280;21656;46.054;13.614;2022-11-15T18:48:48;100353.06;;;11.95;100.00
35553;BME280;21656;46.054;13.614;2022-11-15T18:51:17;100348.69;;;11.73;100.00
35553;BME280;21656;46.054;13.614;2022-11-15T18:53:44;100355.84;;;11.62;100.00
35553;BME280;21656;46.054;13.614;2022-11-15T18:56:12;100352.16;;;11.63;100.00
35553;BME280;21656;46.054;13.614;2022-11-15T18:58:40;100357.75;;;11.71;100.00
35553;BME280;21656;46.054;13.614;2022-11-15T19:01:10;100350.38;;;11.74;100.00
35553;BME280;21656;46.054;13.614;2022-11-15T19:03:39;100349.47;;;11.63;100.00
35553;BME280;21656;46.054;13.614;2022-11-15T19:06:12;100341.28;;;11.75;100.00
35553;BME280;21656;46.054;13.614;2022-11-15T19:08:39;100342.75;;;11.79;100.00
35553;BME280;21656;46.054;13.614;2022-11-15T19:11:07;100343.59;;;11.79;100.00
35553;BME280;21656;46.054;13.614;2022-11-15T19:13:33;100328.69;;;11.85;100.00
35553;BME280;21656;46.054;13.614;2022-11-15T19:15:59;100327.59;;;11.87;100.00
35553;BME280;21656;46.054;13.614;2022-11-15T19:18:26;100325.78;;;11.88;100.00
35553;BME280;21656;46.054;13.614;2022-11-15T19:20:53;100327.13;;;11.82;100.00
35553;BME280;21656;46.054;13.614;2022-11-15T19:23:22;100321.72;;;11.82;100.00
35553;BME280;21656;46.054;13.614;2022-11-15T19:25:56;100331.41;;;11.85;100.00
35553;BME280;21656;46.054;13.614;2022-11-15T19:28:24;100325.78;;;11.88;100.00
35553;BME280;21656;46.054;13.614;2022-11-15T19:30:50;100321.59;;;11.84;100.00
35553;BME280;21656;46.054;13.614;2022-11-15T19:33:16;100315.63;;;11.80;100.00
35553;BME280;21656;46.054;13.614;2022-11-15T19:35:42;100315.50;;;11.82;100.00
35553;BME280;21656;46.054;13.614;2022-11-15T19:38:08;100314.75;;;11.80;100.00
35553;BME280;21656;46.054;13.614;2022-11-15T19:40:34;100302.28;;;11.79;100.00
35553;BME280;21656;46.054;13.614;2022-11-15T19:43:00;100303.50;;;11.75;100.00
35553;BME280;21656;46.054;13.614;2022-11-15T19:45:25;100310.19;;;11.70;100.00
35553;BME280;21656;46.054;13.614;2022-11-15T19:47:51;100311.44;;;11.66;100.00
35553;BME280;21656;46.054;13.614;2022-11-15T19:50:16;100310.97;;;11.61;100.00
35553;BME280;21656;46.054;13.614;2022-11-15T19:52:42;100309.84;;;11.64;100.00
35553;BME280;21656;46.054;13.614;2022-11-15T19:55:07;100311.59;;;11.65;100.00
35553;BME280;21656;46.054;13.614;2022-11-15T19:57:33;100301.25;;;11.70;100.00
35553;BME280;21656;46.054;13.614;2022-11-15T19:59:58;100308.34;;;11.71;100.00
35553;BME280;21656;46.054;13.614;2022-11-15T20:02:23;100316.25;;;11.63;100.00
35553;BME280;21656;46.054;13.614;2022-11-15T20:04:49;100306.59;;;11.60;100.00
35553;BME280;21656;46.054;13.614;2022-11-15T20:07:14;100307.44;;;11.61;100.00
35553;BME280;21656;46.054;13.614;2022-11-15T20:09:39;100311.97;;;11.60;100.00
35553;BME280;21656;46.054;13.614;2022-11-15T20:12:05;100309.34;;;11.49;100.00
35553;BME280;21656;46.054;13.614;2022-11-15T20:14:30;100300.53;;;11.47;100.00
35553;BME280;21656;46.054;13.614;2022-11-15T20:16:56;100302.50;;;11.45;100.00
35553;BME280;21656;46.054;13.614;2022-11-15T20:19:21;100300.13;;;11.52;100.00
35553;BME280;21656;46.054;13.614;2022-11-15T20:21:47;100298.34;;;11.62;100.00
35553;BME280;21656;46.054;13.614;2022-11-15T20:24:13;100287.31;;;11.65;100.00
35553;BME280;21656;46.054;13.614;2022-11-15T20:26:38;100289.34;;;11.73;100.00
35553;BME280;21656;46.054;13.614;2022-11-15T20:29:05;100287.47;;;11.73;100.00
35553;BME280;21656;46.054;13.614;2022-11-15T20:31:30;100291.03;;;11.74;100.00
35553;BME280;21656;46.054;13.614;2022-11-15T20:33:56;100287.22;;;11.76;100.00
35553;BME280;21656;46.054;13.614;2022-11-15T20:36:22;100288.50;;;11.82;100.00
35553;BME280;21656;46.054;13.614;2022-11-15T20:38:47;100289.50;;;11.81;100.00
35553;BME280;21656;46.054;13.614;2022-11-15T20:41:13;100286.47;;;11.74;100.00
35553;BME280;21656;46.054;13.614;2022-11-15T20:43:39;100284.38;;;11.78;100.00
35553;BME280;21656;46.054;13.614;2022-11-15T20:46:10;100281.69;;;11.78;100.00
35553;BME280;21656;46.054;13.614;2022-11-15T20:48:36;100287.31;;;11.65;100.00
35553;BME280;21656;46.054;13.614;2022-11-15T20:51:13;100271.69;;;11.68;100.00
35553;BME280;21656;46.054;13.614;2022-11-15T20:53:43;100271.75;;;11.78;100.00
35553;BME280;21656;46.054;13.614;2022-11-15T20:56:11;100268.59;;;11.73;100.00
35553;BME280;21656;46.054;13.614;2022-11-15T20:58:37;100264.78;;;11.76;100.00
35553;BME280;21656;46.054;13.614;2022-11-15T21:01:04;100255.69;;;11.77;100.00
35553;BME280;21656;46.054;13.614;2022-11-15T21:03:30;100250.00;;;11.70;100.00
35553;BME280;21656;46.054;13.614;2022-11-15T21:05:55;100253.25;;;11.74;100.00
35553;BME280;21656;46.054;13.614;2022-11-15T21:08:21;100247.59;;;11.77;100.00
35553;BME280;21656;46.054;13.614;2022-11-15T21:10:49;100242.47;;;11.74;100.00
35553;BME280;21656;46.054;13.614;2022-11-15T21:13:34;100230.38;;;11.68;100.00
35553;BME280;21656;46.054;13.614;2022-11-15T21:15:59;100245.94;;;11.55;100.00
35553;BME280;21656;46.054;13.614;2022-11-15T21:18:27;100243.69;;;11.60;100.00
35553;BME280;21656;46.054;13.614;2022-11-15T21:20:53;100240.44;;;11.66;100.00
35553;BME280;21656;46.054;13.614;2022-11-15T21:23:18;100233.53;;;11.73;100.00
35553;BME280;21656;46.054;13.614;2022-11-15T21:25:48;100243.31;;;11.74;100.00
35553;BME280;21656;46.054;13.614;2022-11-15T21:28:14;100231.13;;;11.80;100.00
35553;BME280;21656;46.054;13.614;2022-11-15T21:30:39;100230.16;;;11.81;100.00
35553;BME280;21656;46.054;13.614;2022-11-15T21:33:05;100226.00;;;11.77;100.00
35553;BME280;21656;46.054;13.614;2022-11-15T21:35:30;100231.97;;;11.70;100.00
35553;BME280;21656;46.054;13.614;2022-11-15T21:37:57;100220.72;;;11.65;100.00
35553;BME280;21656;46.054;13.614;2022-11-15T21:40:23;100219.28;;;11.61;100.00
35553;BME280;21656;46.054;13.614;2022-11-15T21:42:48;100213.44;;;11.56;100.00
35553;BME280;21656;46.054;13.614;2022-11-15T21:45:14;100211.19;;;11.61;100.00
35553;BME280;21656;46.054;13.614;2022-11-15T21:47:39;100215.34;;;11.65;100.00
35553;BME280;21656;46.054;13.614;2022-11-15T21:50:05;100206.50;;;11.63;100.00
